sensor_id;sensor_type;location;lat;lon;timestamp;P1;durP1;ratioP1;P2;durP2;ratioP2
7843;SDS011;3967;48.702;9.326;2022-10-16T00:00:55;2.27;;;1.23;;
7843;SDS011;3967;48.702;9.326;2022-10-16T00:03:21;2.50;;;1.20;;
7843;SDS011;3967;48.702;9.326;2022-10-16T00:05:58;6.87;;;1.50;;
7843;SDS011;3967;48.702;9.326;2022-10-16T00:08:26;2.73;;;1.37;;
7843;SDS011;3967;48.702;9.326;2022-10-16T00:10:57;3.60;;;1.50;;
7843;SDS011;3967;48.702;9.326;2022-10-16T00:13:25;1.67;;;1.57;;
7843;SDS011;3967;48.702;9.326;2022-10-16T00:15:54;5.67;;;1.53;;
7843;SDS011;3967;48.702;9.326;2022-10-16T00:18:22;4.37;;;1.60;;
7843;SDS011;3967;48.702;9.326;2022-10-16T00:20:49;4.70;;;1.40;;
7843;SDS011;3967;48.702;9.326;2022-10-16T00:23:15;4.33;;;1.57;;
7843;SDS011;3967;48.702;9.326;2022-10-16T00:25:42;1.43;;;1.33;;
7843;SDS011;3967;48.702;9.326;2022-10-16T00:28:09;3.23;;;1.30;;
7843;SDS011;3967;48.702;9.326;2022-10-16T00:30:39;2.40;;;1.50;;
7843;SDS011;3967;48.702;9.326;2022-10-16T00:33:06;4.00;;;1.33;;
7843;SDS011;3967;48.702;9.326;2022-10-16T00:35:32;2.53;;;1.47;;
7843;SDS011;3967;48.702;9.326;2022-10-16T00:37:59;2.60;;;1.37;;
7843;SDS011;3967;48.702;9.326;2022-10-16T00:40:26;4.20;;;1.23;;
7843;SDS011;3967;48.702;9.326;2022-10-16T00:42:54;2.90;;;1.47;;
7843;SDS011;3967;48.702;9.326;2022-10-16T00:45:20;4.60;;;1.63;;
7843;SDS011;3967;48.702;9.326;2022-10-16T00:47:47;1.30;;;1.20;;
7843;SDS011;3967;48.702;9.326;2022-10-16T00:50:24;1.70;;;1.60;;
7843;SDS011;3967;48.702;9.326;2022-10-16T00:52:55;2.30;;;1.23;;
7843;SDS011;3967;48.702;9.326;2022-10-16T00:55:23;1.50;;;1.40;;
7843;SDS011;3967;48.702;9.326;2022-10-16T00:57:50;1.87;;;1.30;;
7843;SDS011;3967;48.702;9.326;2022-10-16T01:00:19;2.67;;;2.37;;
7843;SDS011;3967;48.702;9.326;2022-10-16T01:02:53;2.43;;;1.43;;
7843;SDS011;3967;48.702;9.326;2022-10-16T01:05:26;2.17;;;1.40;;
7843;SDS011;3967;48.702;9.326;2022-10-16T01:08:12;1.73;;;1.40;;
7843;SDS011;3967;48.702;9.326;2022-10-16T01:10:51;1.57;;;1.30;;
7843;SDS011;3967;48.702;9.326;2022-10-16T01:16:07;1.77;;;1.20;;
7843;SDS011;3967;48.702;9.326;2022-10-16T01:18:50;1.80;;;1.30;;
7843;SDS011;3967;48.702;9.326;2022-10-16T01:21:26;1.70;;;1.33;;
7843;SDS011;3967;48.702;9.326;2022-10-16T01:29:54;1.60;;;1.50;;
7843;SDS011;3967;48.702;9.326;2022-10-16T01:35:09;2.70;;;1.80;;
7843;SDS011;3967;48.702;9.326;2022-10-16T01:37:48;5.70;;;1.80;;
7843;SDS011;3967;48.702;9.326;2022-10-16T01:40:41;5.20;;;2.20;;
7843;SDS011;3967;48.702;9.326;2022-10-16T01:43:13;1.47;;;1.37;;
7843;SDS011;3967;48.702;9.326;2022-10-16T01:45:42;1.63;;;1.50;;
7843;SDS011;3967;48.702;9.326;2022-10-16T01:48:12;1.60;;;1.50;;
7843;SDS011;3967;48.702;9.326;2022-10-16T01:50:42;3.43;;;1.77;;
7843;SDS011;3967;48.702;9.326;2022-10-16T01:53:11;4.20;;;1.50;;
7843;SDS011;3967;48.702;9.326;2022-10-16T01:55:40;1.60;;;1.37;;
7843;SDS011;3967;48.702;9.326;2022-10-16T01:58:12;2.33;;;1.50;;
7843;SDS011;3967;48.702;9.326;2022-10-16T02:00:41;2.53;;;1.40;;
7843;SDS011;3967;48.702;9.326;2022-10-16T02:03:10;2.30;;;1.40;;
7843;SDS011;3967;48.702;9.326;2022-10-16T02:05:47;2.97;;;1.77;;
7843;SDS011;3967;48.702;9.326;2022-10-16T02:08:17;7.50;;;2.00;;
7843;SDS011;3967;48.702;9.326;2022-10-16T02:10:44;1.57;;;1.37;;
7843;SDS011;3967;48.702;9.326;2022-10-16T02:13:12;3.03;;;1.50;;
7843;SDS011;3967;48.702;9.326;2022-10-16T02:15:43;6.23;;;1.50;;
7843;SDS011;3967;48.702;9.326;2022-10-16T02:18:10;1.80;;;1.70;;
7843;SDS011;3967;48.702;9.326;2022-10-16T02:20:40;2.00;;;1.60;;
7843;SDS011;3967;48.702;9.326;2022-10-16T02:23:26;2.90;;;1.87;;
7843;SDS011;3967;48.702;9.326;2022-10-16T02:26:03;3.33;;;1.70;;
7843;SDS011;3967;48.702;9.326;2022-10-16T02:28:44;3.17;;;1.50;;
7843;SDS011;3967;48.702;9.326;2022-10-16T02:31:16;2.17;;;1.77;;
7843;SDS011;3967;48.702;9.326;2022-10-16T02:33:47;1.87;;;1.70;;
7843;SDS011;3967;48.702;9.326;2022-10-16T02:36:16;5.67;;;1.87;;
7843;SDS011;3967;48.702;9.326;2022-10-16T02:38:42;3.37;;;1.90;;
7843;SDS011;3967;48.702;9.326;2022-10-16T02:41:10;2.50;;;2.27;;
7843;SDS011;3967;48.702;9.326;2022-10-16T02:43:36;5.63;;;2.87;;
7843;SDS011;3967;48.702;9.326;2022-10-16T02:46:03;5.93;;;2.27;;
7843;SDS011;3967;48.702;9.326;2022-10-16T02:48:29;3.27;;;2.23;;
7843;SDS011;3967;48.702;9.326;2022-10-16T02:50:56;2.20;;;2.00;;
7843;SDS011;3967;48.702;9.326;2022-10-16T02:53:23;3.77;;;2.10;;
7843;SDS011;3967;48.702;9.326;2022-10-16T02:55:49;3.83;;;1.87;;
7843;SDS011;3967;48.702;9.326;2022-10-16T02:58:16;5.30;;;1.80;;
7843;SDS011;3967;48.702;9.326;2022-10-16T03:00:43;2.97;;;1.50;;
7843;SDS011;3967;48.702;9.326;2022-10-16T03:03:09;6.43;;;2.10;;
7843;SDS011;3967;48.702;9.326;2022-10-16T03:05:36;3.43;;;1.80;;
7843;SDS011;3967;48.702;9.326;2022-10-16T03:08:02;3.40;;;1.70;;
7843;SDS011;3967;48.702;9.326;2022-10-16T03:10:29;2.80;;;1.60;;
7843;SDS011;3967;48.702;9.326;2022-10-16T03:12:56;2.27;;;1.97;;
7843;SDS011;3967;48.702;9.326;2022-10-16T03:15:22;3.43;;;2.07;;
7843;SDS011;3967;48.702;9.326;2022-10-16T03:17:49;2.23;;;1.70;;
7843;SDS011;3967;48.702;9.326;2022-10-16T03:20:16;3.50;;;2.00;;
7843;SDS011;3967;48.702;9.326;2022-10-16T03:22:42;2.00;;;1.40;;
7843;SDS011;3967;48.702;9.326;2022-10-16T03:25:09;3.37;;;1.33;;
7843;SDS011;3967;48.702;9.326;2022-10-16T03:27:36;2.10;;;1.63;;
7843;SDS011;3967;48.702;9.326;2022-10-16T03:30:03;2.10;;;1.60;;
7843;SDS011;3967;48.702;9.326;2022-10-16T03:32:30;3.87;;;1.63;;
7843;SDS011;3967;48.702;9.326;2022-10-16T03:34:56;2.20;;;1.57;;
7843;SDS011;3967;48.702;9.326;2022-10-16T03:37:23;1.47;;;1.37;;
7843;SDS011;3967;48.702;9.326;2022-10-16T03:39:51;2.63;;;1.60;;
7843;SDS011;3967;48.702;9.326;2022-10-16T03:42:18;3.30;;;1.80;;
7843;SDS011;3967;48.702;9.326;2022-10-16T03:44:44;1.30;;;1.20;;
7843;SDS011;3967;48.702;9.326;2022-10-16T03:47:11;1.63;;;1.30;;
7843;SDS011;3967;48.702;9.326;2022-10-16T03:49:37;3.23;;;1.40;;
7843;SDS011;3967;48.702;9.326;2022-10-16T03:52:04;2.03;;;1.60;;
7843;SDS011;3967;48.702;9.326;2022-10-16T03:54:31;3.93;;;1.47;;
7843;SDS011;3967;48.702;9.326;2022-10-16T03:56:57;3.10;;;1.40;;
7843;SDS011;3967;48.702;9.326;2022-10-16T03:59:24;2.57;;;1.20;;
7843;SDS011;3967;48.702;9.326;2022-10-16T04:01:51;1.40;;;1.13;;
7843;SDS011;3967;48.702;9.326;2022-10-16T04:04:17;1.60;;;1.50;;
7843;SDS011;3967;48.702;9.326;2022-10-16T04:06:44;3.50;;;1.47;;
7843;SDS011;3967;48.702;9.326;2022-10-16T04:09:11;3.20;;;1.43;;
7843;SDS011;3967;48.702;9.326;2022-10-16T04:11:37;1.60;;;1.50;;
7843;SDS011;3967;48.702;9.326;2022-10-16T04:14:04;2.10;;;1.47;;
7843;SDS011;3967;48.702;9.326;2022-10-16T04:16:31;2.57;;;1.70;;
7843;SDS011;3967;48.702;9.326;2022-10-16T04:18:58;3.43;;;1.63;;
7843;SDS011;3967;48.702;9.326;2022-10-16T04:21:24;6.40;;;1.70;;
7843;SDS011;3967;48.702;9.326;2022-10-16T04:23:51;2.77;;;1.73;;
7843;SDS011;3967;48.702;9.326;2022-10-16T04:26:18;1.53;;;1.43;;
7843;SDS011;3967;48.702;9.326;2022-10-16T04:28:44;1.80;;;1.70;;
7843;SDS011;3967;48.702;9.326;2022-10-16T04:31:11;1.60;;;1.50;;
7843;SDS011;3967;48.702;9.326;2022-10-16T04:33:38;1.53;;;1.43;;
7843;SDS011;3967;48.702;9.326;2022-10-16T04:36:04;1.97;;;1.50;;
7843;SDS011;3967;48.702;9.326;2022-10-16T04:38:31;2.93;;;1.70;;
7843;SDS011;3967;48.702;9.326;2022-10-16T04:40:58;2.37;;;1.73;;
7843;SDS011;3967;48.702;9.326;2022-10-16T04:43:25;2.63;;;1.77;;
7843;SDS011;3967;48.702;9.326;2022-10-16T04:45:52;1.60;;;1.50;;
7843;SDS011;3967;48.702;9.326;2022-10-16T04:48:20;3.17;;;1.67;;
7843;SDS011;3967;48.702;9.326;2022-10-16T04:50:47;1.70;;;1.40;;
7843;SDS011;3967;48.702;9.326;2022-10-16T04:53:20;2.63;;;1.60;;
7843;SDS011;3967;48.702;9.326;2022-10-16T04:55:47;2.47;;;1.30;;
7843;SDS011;3967;48.702;9.326;2022-10-16T04:58:13;4.17;;;1.23;;
7843;SDS011;3967;48.702;9.326;2022-10-16T05:00:40;3.10;;;1.30;;
7843;SDS011;3967;48.702;9.326;2022-10-16T05:03:06;5.27;;;1.40;;
7843;SDS011;3967;48.702;9.326;2022-10-16T05:05:35;1.60;;;1.30;;
7843;SDS011;3967;48.702;9.326;2022-10-16T05:08:02;2.00;;;1.33;;
7843;SDS011;3967;48.702;9.326;2022-10-16T05:10:30;1.40;;;1.30;;
7843;SDS011;3967;48.702;9.326;2022-10-16T05:12:56;2.30;;;1.30;;
7843;SDS011;3967;48.702;9.326;2022-10-16T05:15:23;2.10;;;1.47;;
7843;SDS011;3967;48.702;9.326;2022-10-16T05:17:54;3.10;;;1.90;;
7843;SDS011;3967;48.702;9.326;2022-10-16T05:20:21;5.50;;;1.20;;
7843;SDS011;3967;48.702;9.326;2022-10-16T05:22:48;2.10;;;1.33;;
7843;SDS011;3967;48.702;9.326;2022-10-16T05:25:15;2.83;;;1.00;;
7843;SDS011;3967;48.702;9.326;2022-10-16T05:27:42;1.57;;;1.47;;
7843;SDS011;3967;48.702;9.326;2022-10-16T05:30:09;6.40;;;1.53;;
7843;SDS011;3967;48.702;9.326;2022-10-16T05:32:37;1.50;;;1.20;;
7843;SDS011;3967;48.702;9.326;2022-10-16T05:35:04;2.10;;;1.37;;
7843;SDS011;3967;48.702;9.326;2022-10-16T05:37:36;1.83;;;1.30;;
7843;SDS011;3967;48.702;9.326;2022-10-16T05:40:03;1.53;;;1.10;;
7843;SDS011;3967;48.702;9.326;2022-10-16T05:42:30;3.30;;;1.63;;
7843;SDS011;3967;48.702;9.326;2022-10-16T05:44:57;2.30;;;1.37;;
7843;SDS011;3967;48.702;9.326;2022-10-16T05:47:24;3.63;;;1.20;;
7843;SDS011;3967;48.702;9.326;2022-10-16T05:49:51;4.27;;;1.30;;
7843;SDS011;3967;48.702;9.326;2022-10-16T05:52:17;2.87;;;1.13;;
7843;SDS011;3967;48.702;9.326;2022-10-16T05:54:44;3.53;;;1.40;;
7843;SDS011;3967;48.702;9.326;2022-10-16T05:57:11;1.60;;;1.40;;
7843;SDS011;3967;48.702;9.326;2022-10-16T05:59:37;4.63;;;1.50;;
7843;SDS011;3967;48.702;9.326;2022-10-16T06:02:04;1.70;;;1.60;;
7843;SDS011;3967;48.702;9.326;2022-10-16T06:04:31;3.50;;;1.40;;
7843;SDS011;3967;48.702;9.326;2022-10-16T06:06:58;1.97;;;1.67;;
7843;SDS011;3967;48.702;9.326;2022-10-16T06:09:26;3.00;;;1.50;;
7843;SDS011;3967;48.702;9.326;2022-10-16T06:11:53;3.53;;;1.60;;
7843;SDS011;3967;48.702;9.326;2022-10-16T06:14:20;6.40;;;1.60;;
7843;SDS011;3967;48.702;9.326;2022-10-16T06:16:46;1.63;;;1.40;;
7843;SDS011;3967;48.702;9.326;2022-10-16T06:19:13;1.40;;;1.30;;
7843;SDS011;3967;48.702;9.326;2022-10-16T06:21:41;5.50;;;1.40;;
7843;SDS011;3967;48.702;9.326;2022-10-16T06:24:08;1.90;;;1.20;;
7843;SDS011;3967;48.702;9.326;2022-10-16T06:26:36;3.43;;;1.30;;
7843;SDS011;3967;48.702;9.326;2022-10-16T06:29:04;2.57;;;1.30;;
7843;SDS011;3967;48.702;9.326;2022-10-16T06:31:31;7.43;;;2.57;;
7843;SDS011;3967;48.702;9.326;2022-10-16T06:33:59;3.60;;;1.43;;
7843;SDS011;3967;48.702;9.326;2022-10-16T06:36:26;3.40;;;1.73;;
7843;SDS011;3967;48.702;9.326;2022-10-16T06:38:53;4.70;;;1.50;;
7843;SDS011;3967;48.702;9.326;2022-10-16T06:41:21;1.80;;;1.70;;
7843;SDS011;3967;48.702;9.326;2022-10-16T06:43:48;3.40;;;1.70;;
7843;SDS011;3967;48.702;9.326;2022-10-16T06:46:16;5.17;;;1.80;;
7843;SDS011;3967;48.702;9.326;2022-10-16T06:48:44;7.20;;;2.00;;
7843;SDS011;3967;48.702;9.326;2022-10-16T06:51:12;3.83;;;1.50;;
7843;SDS011;3967;48.702;9.326;2022-10-16T06:53:44;4.43;;;2.00;;
7843;SDS011;3967;48.702;9.326;2022-10-16T06:56:31;2.53;;;1.60;;
7843;SDS011;3967;48.702;9.326;2022-10-16T06:58:58;5.20;;;1.73;;
7843;SDS011;3967;48.702;9.326;2022-10-16T07:01:25;5.57;;;1.97;;
7843;SDS011;3967;48.702;9.326;2022-10-16T07:03:52;3.70;;;1.73;;
7843;SDS011;3967;48.702;9.326;2022-10-16T07:06:21;1.90;;;1.70;;
7843;SDS011;3967;48.702;9.326;2022-10-16T07:08:49;2.70;;;1.90;;
7843;SDS011;3967;48.702;9.326;2022-10-16T07:11:20;3.00;;;1.80;;
7843;SDS011;3967;48.702;9.326;2022-10-16T07:13:48;5.20;;;1.70;;
7843;SDS011;3967;48.702;9.326;2022-10-16T07:16:26;6.57;;;2.03;;
7843;SDS011;3967;48.702;9.326;2022-10-16T07:18:55;1.83;;;1.57;;
7843;SDS011;3967;48.702;9.326;2022-10-16T07:21:27;2.50;;;1.90;;
7843;SDS011;3967;48.702;9.326;2022-10-16T07:24:02;3.27;;;2.17;;
7843;SDS011;3967;48.702;9.326;2022-10-16T07:26:31;2.77;;;1.90;;
7843;SDS011;3967;48.702;9.326;2022-10-16T07:28:59;2.70;;;1.90;;
7843;SDS011;3967;48.702;9.326;2022-10-16T07:31:27;2.43;;;1.70;;
7843;SDS011;3967;48.702;9.326;2022-10-16T07:33:54;3.40;;;1.90;;
7843;SDS011;3967;48.702;9.326;2022-10-16T07:36:21;3.40;;;1.67;;
7843;SDS011;3967;48.702;9.326;2022-10-16T07:38:48;4.23;;;2.20;;
7843;SDS011;3967;48.702;9.326;2022-10-16T07:41:18;3.00;;;1.60;;
7843;SDS011;3967;48.702;9.326;2022-10-16T07:43:49;2.67;;;1.80;;
7843;SDS011;3967;48.702;9.326;2022-10-16T07:46:18;2.80;;;1.80;;
7843;SDS011;3967;48.702;9.326;2022-10-16T07:48:46;3.40;;;1.80;;
7843;SDS011;3967;48.702;9.326;2022-10-16T07:51:14;4.70;;;1.50;;
7843;SDS011;3967;48.702;9.326;2022-10-16T07:53:43;3.63;;;2.27;;
7843;SDS011;3967;48.702;9.326;2022-10-16T07:56:10;7.20;;;2.03;;
7843;SDS011;3967;48.702;9.326;2022-10-16T07:58:38;4.17;;;2.10;;
7843;SDS011;3967;48.702;9.326;2022-10-16T08:01:05;4.10;;;1.80;;
7843;SDS011;3967;48.702;9.326;2022-10-16T08:03:34;5.80;;;1.70;;
7843;SDS011;3967;48.702;9.326;2022-10-16T08:06:01;3.60;;;2.20;;
7843;SDS011;3967;48.702;9.326;2022-10-16T08:08:29;4.80;;;1.57;;
7843;SDS011;3967;48.702;9.326;2022-10-16T08:10:56;2.27;;;2.07;;
7843;SDS011;3967;48.702;9.326;2022-10-16T08:13:23;2.90;;;1.90;;
7843;SDS011;3967;48.702;9.326;2022-10-16T08:15:49;3.33;;;1.63;;
7843;SDS011;3967;48.702;9.326;2022-10-16T08:18:16;1.70;;;1.60;;
7843;SDS011;3967;48.702;9.326;2022-10-16T08:20:43;6.60;;;1.70;;
7843;SDS011;3967;48.702;9.326;2022-10-16T08:23:12;2.37;;;1.97;;
7843;SDS011;3967;48.702;9.326;2022-10-16T08:25:40;4.57;;;2.17;;
7843;SDS011;3967;48.702;9.326;2022-10-16T08:28:08;3.30;;;2.07;;
7843;SDS011;3967;48.702;9.326;2022-10-16T08:30:36;6.50;;;2.10;;
7843;SDS011;3967;48.702;9.326;2022-10-16T08:33:04;3.90;;;2.30;;
7843;SDS011;3967;48.702;9.326;2022-10-16T08:35:32;3.67;;;2.50;;
7843;SDS011;3967;48.702;9.326;2022-10-16T08:37:59;4.67;;;2.83;;
7843;SDS011;3967;48.702;9.326;2022-10-16T08:40:27;5.60;;;2.07;;
7843;SDS011;3967;48.702;9.326;2022-10-16T08:48:48;2.83;;;2.10;;
7843;SDS011;3967;48.702;9.326;2022-10-16T08:51:24;1.90;;;1.80;;
7843;SDS011;3967;48.702;9.326;2022-10-16T08:56:22;2.83;;;1.77;;
7843;SDS011;3967;48.702;9.326;2022-10-16T08:58:51;2.57;;;1.47;;
7843;SDS011;3967;48.702;9.326;2022-10-16T09:01:27;2.30;;;1.43;;
7843;SDS011;3967;48.702;9.326;2022-10-16T09:07:09;2.70;;;1.73;;
7843;SDS011;3967;48.702;9.326;2022-10-16T09:12:54;3.73;;;1.80;;
7843;SDS011;3967;48.702;9.326;2022-10-16T09:15:35;2.50;;;1.40;;
7843;SDS011;3967;48.702;9.326;2022-10-16T09:18:19;3.80;;;1.47;;
7843;SDS011;3967;48.702;9.326;2022-10-16T09:21:18;3.23;;;1.50;;
7843;SDS011;3967;48.702;9.326;2022-10-16T09:23:57;2.17;;;1.20;;
7843;SDS011;3967;48.702;9.326;2022-10-16T09:26:26;4.50;;;1.20;;
7843;SDS011;3967;48.702;9.326;2022-10-16T09:28:53;3.00;;;1.67;;
7843;SDS011;3967;48.702;9.326;2022-10-16T09:31:20;2.20;;;1.50;;
7843;SDS011;3967;48.702;9.326;2022-10-16T09:34:34;2.87;;;1.70;;
7843;SDS011;3967;48.702;9.326;2022-10-16T09:36:44;4.20;;;1.60;;
7843;SDS011;3967;48.702;9.326;2022-10-16T09:39:13;3.57;;;1.73;;
7843;SDS011;3967;48.702;9.326;2022-10-16T09:41:40;5.50;;;1.67;;
7843;SDS011;3967;48.702;9.326;2022-10-16T09:44:29;4.03;;;1.90;;
7843;SDS011;3967;48.702;9.326;2022-10-16T09:47:01;9.63;;;2.00;;
7843;SDS011;3967;48.702;9.326;2022-10-16T09:49:51;2.10;;;1.60;;
7843;SDS011;3967;48.702;9.326;2022-10-16T09:52:18;5.80;;;1.50;;
7843;SDS011;3967;48.702;9.326;2022-10-16T09:54:52;2.80;;;1.70;;
7843;SDS011;3967;48.702;9.326;2022-10-16T09:57:20;5.07;;;1.60;;
7843;SDS011;3967;48.702;9.326;2022-10-16T09:59:54;4.03;;;1.43;;
7843;SDS011;3967;48.702;9.326;2022-10-16T10:02:43;6.23;;;1.40;;
7843;SDS011;3967;48.702;9.326;2022-10-16T10:05:22;2.63;;;1.60;;
7843;SDS011;3967;48.702;9.326;2022-10-16T10:08:03;4.07;;;1.93;;
7843;SDS011;3967;48.702;9.326;2022-10-16T10:10:32;2.87;;;1.37;;
7843;SDS011;3967;48.702;9.326;2022-10-16T10:13:21;1.23;;;1.10;;
7843;SDS011;3967;48.702;9.326;2022-10-16T10:15:50;3.00;;;1.40;;
7843;SDS011;3967;48.702;9.326;2022-10-16T10:18:18;2.10;;;1.53;;
7843;SDS011;3967;48.702;9.326;2022-10-16T10:20:58;2.87;;;1.67;;
7843;SDS011;3967;48.702;9.326;2022-10-16T10:23:26;6.17;;;2.30;;
7843;SDS011;3967;48.702;9.326;2022-10-16T10:26:14;2.87;;;1.20;;
7843;SDS011;3967;48.702;9.326;2022-10-16T10:31:45;2.20;;;1.30;;
7843;SDS011;3967;48.702;9.326;2022-10-16T10:34:20;4.63;;;1.30;;
7843;SDS011;3967;48.702;9.326;2022-10-16T10:39:57;4.13;;;1.50;;
7843;SDS011;3967;48.702;9.326;2022-10-16T10:42:39;2.37;;;1.40;;
7843;SDS011;3967;48.702;9.326;2022-10-16T10:45:18;3.50;;;1.00;;
7843;SDS011;3967;48.702;9.326;2022-10-16T10:50:48;1.77;;;1.00;;
7843;SDS011;3967;48.702;9.326;2022-10-16T10:59:00;2.90;;;0.80;;
7843;SDS011;3967;48.702;9.326;2022-10-16T11:01:54;1.60;;;0.90;;
7843;SDS011;3967;48.702;9.326;2022-10-16T11:09:47;1.20;;;0.80;;
7843;SDS011;3967;48.702;9.326;2022-10-16T11:15:03;1.63;;;0.53;;
7843;SDS011;3967;48.702;9.326;2022-10-16T11:17:58;2.70;;;1.07;;
7843;SDS011;3967;48.702;9.326;2022-10-16T11:20:33;3.73;;;1.00;;
7843;SDS011;3967;48.702;9.326;2022-10-16T11:23:51;3.27;;;0.90;;
7843;SDS011;3967;48.702;9.326;2022-10-16T11:26:12;3.87;;;1.50;;
7843;SDS011;3967;48.702;9.326;2022-10-16T11:28:50;1.73;;;0.60;;
7843;SDS011;3967;48.702;9.326;2022-10-16T11:31:28;2.63;;;1.00;;
7843;SDS011;3967;48.702;9.326;2022-10-16T11:34:12;1.60;;;0.90;;
7843;SDS011;3967;48.702;9.326;2022-10-16T11:39:33;5.47;;;0.83;;
7843;SDS011;3967;48.702;9.326;2022-10-16T11:55:45;4.17;;;0.80;;
7843;SDS011;3967;48.702;9.326;2022-10-16T11:58:19;1.40;;;0.50;;
7843;SDS011;3967;48.702;9.326;2022-10-16T12:01:30;1.00;;;0.70;;
7843;SDS011;3967;48.702;9.326;2022-10-16T12:07:11;0.70;;;0.63;;
7843;SDS011;3967;48.702;9.326;2022-10-16T12:09:43;0.70;;;0.70;;
7843;SDS011;3967;48.702;9.326;2022-10-16T12:15:00;1.80;;;0.80;;
7843;SDS011;3967;48.702;9.326;2022-10-16T12:17:47;1.40;;;0.73;;
7843;SDS011;3967;48.702;9.326;2022-10-16T12:25:25;1.47;;;0.90;;
7843;SDS011;3967;48.702;9.326;2022-10-16T12:27:58;2.90;;;0.80;;
7843;SDS011;3967;48.702;9.326;2022-10-16T12:30:29;1.00;;;0.77;;
7843;SDS011;3967;48.702;9.326;2022-10-16T12:33:02;1.03;;;0.80;;
7843;SDS011;3967;48.702;9.326;2022-10-16T12:35:35;1.60;;;0.70;;
7843;SDS011;3967;48.702;9.326;2022-10-16T12:38:19;1.90;;;1.00;;
7843;SDS011;3967;48.702;9.326;2022-10-16T12:40:55;2.23;;;0.80;;
7843;SDS011;3967;48.702;9.326;2022-10-16T12:48:35;1.83;;;0.70;;
7843;SDS011;3967;48.702;9.326;2022-10-16T12:54:03;0.90;;;0.80;;
7843;SDS011;3967;48.702;9.326;2022-10-16T12:56:36;3.13;;;0.93;;
7843;SDS011;3967;48.702;9.326;2022-10-16T12:59:38;1.70;;;0.90;;
7843;SDS011;3967;48.702;9.326;2022-10-16T13:02:28;1.00;;;0.90;;
7843;SDS011;3967;48.702;9.326;2022-10-16T13:10:14;1.77;;;0.57;;
7843;SDS011;3967;48.702;9.326;2022-10-16T13:13:16;1.67;;;0.80;;
7843;SDS011;3967;48.702;9.326;2022-10-16T13:18:29;0.70;;;0.70;;
7843;SDS011;3967;48.702;9.326;2022-10-16T13:23:48;3.23;;;0.80;;
7843;SDS011;3967;48.702;9.326;2022-10-16T13:29:07;4.10;;;0.70;;
7843;SDS011;3967;48.702;9.326;2022-10-16T13:31:33;0.80;;;0.80;;
7843;SDS011;3967;48.702;9.326;2022-10-16T13:34:04;0.90;;;0.70;;
7843;SDS011;3967;48.702;9.326;2022-10-16T13:36:43;1.30;;;0.83;;
7843;SDS011;3967;48.702;9.326;2022-10-16T13:39:14;3.20;;;0.87;;
7843;SDS011;3967;48.702;9.326;2022-10-16T13:41:57;1.53;;;0.87;;
7843;SDS011;3967;48.702;9.326;2022-10-16T13:44:54;0.70;;;0.67;;
7843;SDS011;3967;48.702;9.326;2022-10-16T13:47:26;0.70;;;0.70;;
7843;SDS011;3967;48.702;9.326;2022-10-16T13:50:08;0.80;;;0.80;;
7843;SDS011;3967;48.702;9.326;2022-10-16T13:52:38;2.47;;;0.80;;
7843;SDS011;3967;48.702;9.326;2022-10-16T13:57:39;1.03;;;0.73;;
7843;SDS011;3967;48.702;9.326;2022-10-16T14:02:49;1.33;;;0.70;;
7843;SDS011;3967;48.702;9.326;2022-10-16T14:05:18;1.23;;;0.90;;
7843;SDS011;3967;48.702;9.326;2022-10-16T14:07:47;2.93;;;0.70;;
7843;SDS011;3967;48.702;9.326;2022-10-16T14:10:25;1.33;;;0.80;;
7843;SDS011;3967;48.702;9.326;2022-10-16T14:12:59;0.97;;;0.80;;
7843;SDS011;3967;48.702;9.326;2022-10-16T14:15:29;3.23;;;0.87;;
7843;SDS011;3967;48.702;9.326;2022-10-16T14:17:58;1.70;;;0.70;;
7843;SDS011;3967;48.702;9.326;2022-10-16T14:20:30;3.60;;;1.13;;
7843;SDS011;3967;48.702;9.326;2022-10-16T14:23:16;2.57;;;0.80;;
7843;SDS011;3967;48.702;9.326;2022-10-16T14:25:45;0.80;;;0.80;;
7843;SDS011;3967;48.702;9.326;2022-10-16T14:28:16;0.80;;;0.77;;
7843;SDS011;3967;48.702;9.326;2022-10-16T14:33:21;1.47;;;0.60;;
7843;SDS011;3967;48.702;9.326;2022-10-16T14:36:06;1.20;;;1.10;;
7843;SDS011;3967;48.702;9.326;2022-10-16T14:38:37;1.80;;;0.80;;
7843;SDS011;3967;48.702;9.326;2022-10-16T14:41:06;1.90;;;1.00;;
7843;SDS011;3967;48.702;9.326;2022-10-16T14:43:36;2.10;;;1.17;;
7843;SDS011;3967;48.702;9.326;2022-10-16T14:46:07;0.60;;;0.60;;
7843;SDS011;3967;48.702;9.326;2022-10-16T14:48:43;2.53;;;0.97;;
7843;SDS011;3967;48.702;9.326;2022-10-16T14:51:17;2.10;;;0.90;;
7843;SDS011;3967;48.702;9.326;2022-10-16T14:53:45;0.77;;;0.77;;
7843;SDS011;3967;48.702;9.326;2022-10-16T14:56:19;2.50;;;0.80;;
7843;SDS011;3967;48.702;9.326;2022-10-16T14:58:49;0.90;;;0.80;;
7843;SDS011;3967;48.702;9.326;2022-10-16T15:01:17;2.23;;;0.80;;
7843;SDS011;3967;48.702;9.326;2022-10-16T15:03:45;1.83;;;0.80;;
7843;SDS011;3967;48.702;9.326;2022-10-16T15:06:15;1.73;;;0.70;;
7843;SDS011;3967;48.702;9.326;2022-10-16T15:08:42;2.30;;;0.80;;
7843;SDS011;3967;48.702;9.326;2022-10-16T15:11:18;1.13;;;0.80;;
7843;SDS011;3967;48.702;9.326;2022-10-16T15:13:46;1.30;;;0.90;;
7843;SDS011;3967;48.702;9.326;2022-10-16T15:16:16;1.80;;;0.70;;
7843;SDS011;3967;48.702;9.326;2022-10-16T15:18:43;1.77;;;0.83;;
7843;SDS011;3967;48.702;9.326;2022-10-16T15:23:54;1.00;;;0.80;;
7843;SDS011;3967;48.702;9.326;2022-10-16T15:26:25;1.17;;;1.00;;
7843;SDS011;3967;48.702;9.326;2022-10-16T15:28:53;1.23;;;0.93;;
7843;SDS011;3967;48.702;9.326;2022-10-16T15:31:21;2.50;;;0.90;;
7843;SDS011;3967;48.702;9.326;2022-10-16T15:33:51;7.10;;;1.77;;
7843;SDS011;3967;48.702;9.326;2022-10-16T15:36:26;6.37;;;1.17;;
7843;SDS011;3967;48.702;9.326;2022-10-16T15:38:57;7.53;;;1.30;;
7843;SDS011;3967;48.702;9.326;2022-10-16T15:41:23;2.50;;;1.70;;
7843;SDS011;3967;48.702;9.326;2022-10-16T15:43:50;2.07;;;1.13;;
7843;SDS011;3967;48.702;9.326;2022-10-16T15:46:18;6.40;;;1.40;;
7843;SDS011;3967;48.702;9.326;2022-10-16T15:48:47;1.83;;;1.13;;
7843;SDS011;3967;48.702;9.326;2022-10-16T15:51:15;2.20;;;1.00;;
7843;SDS011;3967;48.702;9.326;2022-10-16T15:53:43;3.13;;;1.07;;
7843;SDS011;3967;48.702;9.326;2022-10-16T15:56:12;2.97;;;1.23;;
7843;SDS011;3967;48.702;9.326;2022-10-16T15:58:39;4.07;;;1.30;;
7843;SDS011;3967;48.702;9.326;2022-10-16T16:01:06;1.13;;;0.93;;
7843;SDS011;3967;48.702;9.326;2022-10-16T16:03:35;1.63;;;1.00;;
7843;SDS011;3967;48.702;9.326;2022-10-16T16:06:05;2.27;;;1.00;;
7843;SDS011;3967;48.702;9.326;2022-10-16T16:08:33;1.33;;;1.00;;
7843;SDS011;3967;48.702;9.326;2022-10-16T16:11:02;1.13;;;0.97;;
7843;SDS011;3967;48.702;9.326;2022-10-16T16:13:29;2.53;;;0.90;;
7843;SDS011;3967;48.702;9.326;2022-10-16T16:15:55;3.47;;;1.07;;
7843;SDS011;3967;48.702;9.326;2022-10-16T16:18:22;1.40;;;1.30;;
7843;SDS011;3967;48.702;9.326;2022-10-16T16:20:50;3.27;;;1.43;;
7843;SDS011;3967;48.702;9.326;2022-10-16T16:23:17;3.73;;;1.30;;
7843;SDS011;3967;48.702;9.326;2022-10-16T16:25:45;2.30;;;1.70;;
7843;SDS011;3967;48.702;9.326;2022-10-16T16:28:27;3.27;;;1.50;;
7843;SDS011;3967;48.702;9.326;2022-10-16T16:30:54;2.63;;;2.07;;
7843;SDS011;3967;48.702;9.326;2022-10-16T16:33:21;4.63;;;1.53;;
7843;SDS011;3967;48.702;9.326;2022-10-16T16:35:48;3.43;;;1.33;;
7843;SDS011;3967;48.702;9.326;2022-10-16T16:38:14;3.33;;;1.47;;
7843;SDS011;3967;48.702;9.326;2022-10-16T16:40:41;1.33;;;1.20;;
7843;SDS011;3967;48.702;9.326;2022-10-16T16:43:08;2.70;;;1.47;;
7843;SDS011;3967;48.702;9.326;2022-10-16T16:45:35;3.57;;;1.33;;
7843;SDS011;3967;48.702;9.326;2022-10-16T16:48:02;2.10;;;1.50;;
7843;SDS011;3967;48.702;9.326;2022-10-16T16:50:29;2.23;;;1.30;;
7843;SDS011;3967;48.702;9.326;2022-10-16T16:52:55;1.60;;;1.23;;
7843;SDS011;3967;48.702;9.326;2022-10-16T16:55:22;2.13;;;1.30;;
7843;SDS011;3967;48.702;9.326;2022-10-16T16:57:49;2.87;;;1.20;;
7843;SDS011;3967;48.702;9.326;2022-10-16T17:00:15;3.90;;;1.33;;
7843;SDS011;3967;48.702;9.326;2022-10-16T17:02:42;2.80;;;1.67;;
7843;SDS011;3967;48.702;9.326;2022-10-16T17:05:10;2.47;;;1.50;;
7843;SDS011;3967;48.702;9.326;2022-10-16T17:07:37;4.03;;;1.40;;
7843;SDS011;3967;48.702;9.326;2022-10-16T17:10:07;2.30;;;1.50;;
7843;SDS011;3967;48.702;9.326;2022-10-16T17:12:34;3.67;;;2.37;;
7843;SDS011;3967;48.702;9.326;2022-10-16T17:15:01;2.03;;;1.80;;
7843;SDS011;3967;48.702;9.326;2022-10-16T17:17:28;4.03;;;3.50;;
7843;SDS011;3967;48.702;9.326;2022-10-16T17:19:55;4.77;;;3.53;;
7843;SDS011;3967;48.702;9.326;2022-10-16T17:22:22;2.40;;;1.70;;
7843;SDS011;3967;48.702;9.326;2022-10-16T17:24:50;3.97;;;1.90;;